createdAt,value
2024-05-09T00:01:55.866Z,100.00
2024-05-09T00:03:58.105Z,100.00
2024-05-09T00:06:00.091Z,100.00
2024-05-09T00:08:07.512Z,100.00
2024-05-09T00:10:15.151Z,100.00
2024-05-09T00:12:25.380Z,100.00
2024-05-09T00:14:27.411Z,100.00
2024-05-09T00:16:29.479Z,100.00
2024-05-09T00:18:31.706Z,100.00
2024-05-09T00:20:38.826Z,100.00
2024-05-09T00:22:43.260Z,100.00
2024-05-09T00:24:47.666Z,100.00
2024-05-09T00:26:49.690Z,100.00
2024-05-09T00:28:51.590Z,100.00
2024-05-09T00:30:53.416Z,100.00
2024-05-09T00:32:55.572Z,100.00
2024-05-09T00:34:57.546Z,100.00
2024-05-09T00:36:59.715Z,100.00
2024-05-09T00:39:01.471Z,100.00
2024-05-09T00:41:06.334Z,100.00
2024-05-09T00:43:08.588Z,100.00
2024-05-09T00:45:12.302Z,100.00
2024-05-09T00:47:14.348Z,100.00
2024-05-09T00:49:16.570Z,100.00
2024-05-09T00:51:19.642Z,100.00
2024-05-09T00:53:22.047Z,100.00
2024-05-09T00:55:24.235Z,100.00
2024-05-09T00:57:28.733Z,100.00
2024-05-09T00:59:33.329Z,100.00
2024-05-09T01:01:35.333Z,100.00
2024-05-09T01:03:37.491Z,100.00
2024-05-09T01:05:39.916Z,100.00
2024-05-09T01:07:43.215Z,100.00
2024-05-09T01:09:45.076Z,100.00
2024-05-09T01:11:46.916Z,100.00
2024-05-09T01:13:51.409Z,100.00
2024-05-09T01:15:53.409Z,100.00
2024-05-09T01:17:55.688Z,100.00
2024-05-09T01:19:57.707Z,100.00
2024-05-09T01:21:59.584Z,100.00
2024-05-09T01:24:04.534Z,100.00
2024-05-09T01:26:06.333Z,100.00
2024-05-09T01:28:08.289Z,100.00
2024-05-09T01:30:16.954Z,100.00
2024-05-09T01:32:22.753Z,100.00
2024-05-09T01:34:25.007Z,100.00
2024-05-09T01:36:26.913Z,100.00
2024-05-09T01:38:28.829Z,100.00
2024-05-09T01:40:38.128Z,100.00
2024-05-09T01:42:41.897Z,100.00
2024-05-09T01:44:43.673Z,100.00
2024-05-09T01:46:45.510Z,100.00
2024-05-09T01:48:47.474Z,100.00
2024-05-09T01:50:49.352Z,100.00
2024-05-09T01:52:51.233Z,100.00
2024-05-09T01:54:53.545Z,100.00
2024-05-09T01:56:57.976Z,100.00
2024-05-09T01:58:59.812Z,100.00
2024-05-09T02:01:01.711Z,100.00
2024-05-09T02:03:04.096Z,100.00
2024-05-09T02:05:06.682Z,100.00
2024-05-09T02:07:08.548Z,100.00
2024-05-09T02:09:10.377Z,100.00
2024-05-09T02:11:12.255Z,100.00
2024-05-09T02:13:17.199Z,100.00
2024-05-09T02:15:19.000Z,100.00
2024-05-09T02:17:20.902Z,100.00
2024-05-09T02:19:22.930Z,100.00
2024-05-09T02:21:24.819Z,100.00
2024-05-09T02:23:26.616Z,100.00
2024-05-09T02:25:28.454Z,100.00
2024-05-09T02:27:30.204Z,100.00
2024-05-09T02:29:34.709Z,100.00
2024-05-09T02:31:36.537Z,100.00
2024-05-09T02:33:38.520Z,100.00
2024-05-09T02:35:40.968Z,100.00
2024-05-09T02:37:42.879Z,100.00
2024-05-09T02:39:44.709Z,100.00
2024-05-09T02:41:46.567Z,100.00
2024-05-09T02:43:48.444Z,100.00
2024-05-09T02:45:52.856Z,100.00
2024-05-09T02:47:54.978Z,100.00
2024-05-09T02:49:57.036Z,100.00
2024-05-09T02:51:58.853Z,100.00
2024-05-09T02:54:00.653Z,100.00
2024-05-09T02:56:02.523Z,100.00
2024-05-09T02:58:04.716Z,100.00
2024-05-09T03:00:15.004Z,100.00
2024-05-09T03:02:23.212Z,100.00
2024-05-09T03:04:25.026Z,100.00
2024-05-09T03:06:26.918Z,100.00
2024-05-09T03:08:28.950Z,100.00
2024-05-09T03:10:35.945Z,100.00
2024-05-09T03:12:39.900Z,100.00
2024-05-09T03:14:41.707Z,100.00
2024-05-09T03:16:43.579Z,100.00
2024-05-09T03:18:48.084Z,100.00
2024-05-09T03:20:49.886Z,100.00
2024-05-09T03:22:54.872Z,100.00
2024-05-09T03:24:58.172Z,100.00
2024-05-09T03:26:59.957Z,100.00
2024-05-09T03:29:01.785Z,100.00
2024-05-09T03:31:03.757Z,100.00
2024-05-09T03:33:05.958Z,100.00
2024-05-09T03:35:10.432Z,100.00
2024-05-09T03:37:13.285Z,100.00
2024-05-09T03:39:15.178Z,100.00
2024-05-09T03:41:19.374Z,100.00
2024-05-09T03:43:21.341Z,100.00
2024-05-09T03:45:23.079Z,100.00
2024-05-09T03:47:24.938Z,100.00
2024-05-09T03:49:26.959Z,100.00
2024-05-09T03:51:31.455Z,100.00
2024-05-09T03:53:33.388Z,100.00
2024-05-09T03:55:36.408Z,100.00
2024-05-09T03:57:39.617Z,100.00
2024-05-09T03:59:41.499Z,100.00
2024-05-09T04:01:43.418Z,100.00
2024-05-09T04:03:45.392Z,100.00
2024-05-09T04:05:47.302Z,100.00
2024-05-09T04:07:51.960Z,100.00
2024-05-09T04:09:53.716Z,100.00
2024-05-09T04:11:56.285Z,100.00
2024-05-09T04:13:58.236Z,100.00
2024-05-09T04:16:00.021Z,100.00
2024-05-09T04:18:02.643Z,100.00
2024-05-09T04:20:08.335Z,100.00
2024-05-09T04:22:10.316Z,100.00
2024-05-09T04:24:14.756Z,100.00
2024-05-09T04:26:16.985Z,100.00
2024-05-09T04:28:19.012Z,100.00
2024-05-09T04:30:30.182Z,100.00
2024-05-09T04:32:38.352Z,100.00
2024-05-09T04:34:40.255Z,100.00
2024-05-09T04:36:44.542Z,100.00
2024-05-09T04:38:46.565Z,100.00
2024-05-09T04:40:51.759Z,100.00
2024-05-09T04:42:53.617Z,100.00
2024-05-09T04:44:58.680Z,100.00
2024-05-09T04:47:00.664Z,100.00
2024-05-09T04:49:02.668Z,100.00
2024-05-09T04:51:07.168Z,100.00
2024-05-09T04:53:10.592Z,100.00
2024-05-09T04:55:13.619Z,100.00
2024-05-09T04:57:18.022Z,100.00
2024-05-09T04:59:19.816Z,100.00
2024-05-09T05:01:21.723Z,100.00
2024-05-09T05:03:23.773Z,100.00
2024-05-09T05:05:25.772Z,100.00
2024-05-09T05:07:27.550Z,100.00
2024-05-09T05:09:29.469Z,100.00
2024-05-09T05:11:31.335Z,100.00
2024-05-09T05:13:38.636Z,100.00
2024-05-09T05:15:42.915Z,100.00
2024-05-09T05:17:44.889Z,100.00
2024-05-09T05:19:47.985Z,100.00
2024-05-09T05:21:49.822Z,100.00
2024-05-09T05:23:51.601Z,100.00
2024-05-09T05:25:54.184Z,100.00
2024-05-09T05:27:56.317Z,100.00
2024-05-09T05:30:00.781Z,100.00
2024-05-09T05:32:02.630Z,100.00
2024-05-09T05:34:04.677Z,100.00
2024-05-09T05:36:07.214Z,100.00
2024-05-09T05:38:10.271Z,100.00
2024-05-09T05:40:20.614Z,100.00
2024-05-09T05:42:26.878Z,100.00
2024-05-09T05:44:28.719Z,100.00
2024-05-09T05:46:33.149Z,100.00
2024-05-09T05:48:35.238Z,100.00
2024-05-09T05:50:38.880Z,100.00
2024-05-09T05:52:40.914Z,100.00
2024-05-09T05:54:42.775Z,100.00
2024-05-09T05:56:44.714Z,100.00
2024-05-09T05:58:46.648Z,100.00
2024-05-09T06:00:48.565Z,100.00
2024-05-09T06:02:53.267Z,100.00
2024-05-09T06:04:55.606Z,100.00
2024-05-09T06:06:57.421Z,100.00
2024-05-09T06:08:59.224Z,100.00
2024-05-09T06:11:01.160Z,100.00
2024-05-09T06:13:03.087Z,100.00
2024-05-09T06:15:06.083Z,100.00
2024-05-09T06:17:07.956Z,100.00
2024-05-09T06:21:16.766Z,100.00
2024-05-09T06:23:18.687Z,100.00
2024-05-09T06:25:20.772Z,100.00
2024-05-09T06:27:22.594Z,100.00
2024-05-09T06:29:24.435Z,100.00
2024-05-09T06:31:26.353Z,100.00
2024-05-09T06:33:28.403Z,100.00
2024-05-09T06:35:33.387Z,100.00
2024-05-09T06:37:35.414Z,100.00
2024-05-09T06:39:37.218Z,100.00
2024-05-09T06:41:39.057Z,99.81
2024-05-09T06:43:41.794Z,100.00
2024-05-09T06:45:44.230Z,100.00
2024-05-09T06:47:46.215Z,100.00
2024-05-09T06:49:48.159Z,100.00
2024-05-09T06:51:52.604Z,99.62
2024-05-09T06:53:54.689Z,97.66
2024-05-09T06:55:56.497Z,97.71
2024-05-09T06:57:58.283Z,95.81
2024-05-09T07:00:00.050Z,94.96
2024-05-09T07:02:02.644Z,92.79
2024-05-09T07:04:04.970Z,89.78
2024-05-09T07:06:07.010Z,90.54
2024-05-09T07:08:11.867Z,88.75
2024-05-09T07:10:21.699Z,85.24
2024-05-09T07:12:27.708Z,88.86
2024-05-09T07:14:30.019Z,86.89
2024-05-09T07:16:32.094Z,84.59
2024-05-09T07:18:34.019Z,85.31
2024-05-09T07:20:35.952Z,81.78
2024-05-09T07:22:37.842Z,82.19
2024-05-09T07:24:42.226Z,80.01
2024-05-09T07:26:44.046Z,80.49
2024-05-09T07:28:45.975Z,78.13
2024-05-09T07:30:48.054Z,81.31
2024-05-09T07:32:50.162Z,83.20
2024-05-09T07:34:52.190Z,82.08
2024-05-09T07:36:54.025Z,79.45
2024-05-09T07:38:55.806Z,77.43
2024-05-09T07:41:00.231Z,73.69
2024-05-09T07:43:03.227Z,77.48
2024-05-09T07:45:21.581Z,73.41
2024-05-09T07:48:57.124Z,72.40
2024-05-09T07:51:32.778Z,68.76
2024-05-09T07:53:29.674Z,67.13
2024-05-09T07:54:35.788Z,66.23
2024-05-09T07:56:40.660Z,64.38
2024-05-09T07:58:43.617Z,65.71
2024-05-09T08:00:45.500Z,66.48
2024-05-09T08:02:47.483Z,66.89
2024-05-09T08:04:49.560Z,65.46
2024-05-09T08:06:51.481Z,62.90
2024-05-09T08:08:53.500Z,65.30
2024-05-09T08:10:55.450Z,60.10
2024-05-09T08:13:00.012Z,62.62
2024-05-09T08:15:02.029Z,59.67
2024-05-09T08:17:04.278Z,60.54
2024-05-09T08:19:06.320Z,58.86
2024-05-09T08:21:08.234Z,61.23
2024-05-09T08:23:11.263Z,61.23
2024-05-09T08:25:14.260Z,62.30
2024-05-09T08:27:16.209Z,63.25
2024-05-09T08:29:20.565Z,64.54
2024-05-09T08:31:22.435Z,63.83
2024-05-09T08:33:24.456Z,60.21
2024-05-09T08:35:28.772Z,60.60
2024-05-09T08:37:35.010Z,62.14
2024-05-09T08:39:39.914Z,62.78
2024-05-09T08:41:42.887Z,63.77
2024-05-09T08:43:44.935Z,58.84
2024-05-09T08:45:49.581Z,59.10
2024-05-09T08:47:53.425Z,58.53
2024-05-09T08:49:58.434Z,58.59
2024-05-09T08:52:00.472Z,58.84
2024-05-09T08:54:02.356Z,58.58
2024-05-09T08:56:06.549Z,56.40
2024-05-09T08:58:10.349Z,56.66
2024-05-09T09:00:15.146Z,56.46
2024-05-09T09:02:24.346Z,56.12
2024-05-09T09:04:26.404Z,56.42
2024-05-09T09:06:29.552Z,58.49
2024-05-09T09:08:32.446Z,56.67
2024-05-09T09:10:35.185Z,58.41
2024-05-09T09:12:37.329Z,54.05
2024-05-09T09:14:39.135Z,55.58
2024-05-09T09:16:40.954Z,58.52
2024-05-09T09:18:46.537Z,58.97
2024-05-09T09:20:48.682Z,54.53
2024-05-09T09:22:50.512Z,53.30
2024-05-09T09:24:52.542Z,54.88
2024-05-09T09:26:56.901Z,52.08
2024-05-09T09:28:59.942Z,52.27
2024-05-09T09:31:01.982Z,53.47
2024-05-09T09:33:03.997Z,56.26
2024-05-09T09:35:08.764Z,55.33
2024-05-09T09:37:11.446Z,54.17
2024-05-09T09:39:16.872Z,51.65
2024-05-09T09:41:23.962Z,54.47
2024-05-09T09:43:26.704Z,52.60
2024-05-09T09:45:29.278Z,51.08
2024-05-09T09:47:32.081Z,49.52
2024-05-09T09:49:36.071Z,51.41
2024-05-09T09:51:42.542Z,51.03
2024-05-09T09:53:45.118Z,50.72
2024-05-09T09:55:48.125Z,50.58
2024-05-09T09:57:50.003Z,49.91
2024-05-09T09:59:54.605Z,50.05
2024-05-09T10:01:57.082Z,46.70
2024-05-09T10:03:59.340Z,48.29
2024-05-09T10:06:02.031Z,49.95
2024-05-09T10:08:08.401Z,49.51
2024-05-09T10:10:13.992Z,48.08
2024-05-09T10:12:20.706Z,49.20
2024-05-09T10:14:22.526Z,51.45
2024-05-09T10:16:24.535Z,50.54
2024-05-09T10:18:36.462Z,51.77
2024-05-09T10:20:40.373Z,50.85
2024-05-09T10:22:46.783Z,51.49
2024-05-09T10:24:51.600Z,53.79
2024-05-09T10:26:53.468Z,54.22
2024-05-09T10:28:56.120Z,53.69
2024-05-09T10:31:03.058Z,53.95
2024-05-09T10:33:10.710Z,53.58
2024-05-09T10:35:12.975Z,53.79
2024-05-09T10:37:15.256Z,53.30
2024-05-09T10:39:17.657Z,54.81
2024-05-09T10:41:23.518Z,55.17
2024-05-09T10:43:25.823Z,56.15
2024-05-09T10:45:28.190Z,55.29
2024-05-09T10:47:30.248Z,55.52
2024-05-09T10:49:32.142Z,55.59
2024-05-09T10:51:34.358Z,56.38
2024-05-09T10:53:42.471Z,53.77
2024-05-09T10:55:55.032Z,53.86
2024-05-09T10:57:59.552Z,54.51
2024-05-09T11:00:01.410Z,55.12
2024-05-09T11:02:04.812Z,53.30
2024-05-09T11:04:08.415Z,53.76
2024-05-09T11:06:10.964Z,52.50
2024-05-09T11:08:13.252Z,54.18
2024-05-09T11:10:20.996Z,52.45
2024-05-09T11:12:29.313Z,52.08
2024-05-09T11:14:34.167Z,51.11
2024-05-09T11:16:36.041Z,50.47
2024-05-09T11:18:39.231Z,50.93
2024-05-09T11:20:41.485Z,51.10
2024-05-09T11:22:45.234Z,52.02
2024-05-09T11:24:47.100Z,52.62
2024-05-09T11:26:49.049Z,52.41
2024-05-09T11:28:51.860Z,52.80
2024-05-09T11:31:05.450Z,55.52
2024-05-09T11:33:11.302Z,55.40
2024-05-09T11:35:13.101Z,55.44
2024-05-09T11:37:15.042Z,55.71
2024-05-09T11:39:16.917Z,54.54
2024-05-09T11:41:18.906Z,53.57
2024-05-09T11:43:21.149Z,54.36
2024-05-09T11:45:23.162Z,54.43
2024-05-09T11:47:27.739Z,53.01
2024-05-09T11:49:29.722Z,52.73
2024-05-09T11:51:31.652Z,53.14
2024-05-09T11:53:33.463Z,53.39
2024-05-09T11:55:35.343Z,54.11
2024-05-09T11:57:37.268Z,52.71
2024-05-09T11:59:39.101Z,52.40
2024-05-09T12:01:41.001Z,52.51
2024-05-09T12:03:45.897Z,51.21
2024-05-09T12:05:47.943Z,51.31
2024-05-09T12:07:50.062Z,50.60
2024-05-09T12:09:51.841Z,51.58
2024-05-09T12:11:53.836Z,50.71
2024-05-09T12:13:55.690Z,51.30
2024-05-09T12:15:58.162Z,52.42
2024-05-09T12:18:02.515Z,51.54
2024-05-09T12:20:17.418Z,51.03
2024-05-09T12:22:27.024Z,50.53
2024-05-09T12:24:28.869Z,48.74
2024-05-09T12:26:30.767Z,48.36
2024-05-09T12:28:32.617Z,47.19
2024-05-09T12:30:38.398Z,48.22
2024-05-09T12:32:42.310Z,48.37
2024-05-09T12:34:44.156Z,48.32
2024-05-09T12:36:48.712Z,48.47
2024-05-09T12:38:50.537Z,49.73
2024-05-09T12:40:52.586Z,49.71
2024-05-09T12:42:54.550Z,50.97
2024-05-09T12:44:56.350Z,50.21
2024-05-09T12:46:58.222Z,50.75
2024-05-09T12:49:00.370Z,48.61
2024-05-09T12:51:02.621Z,47.82
2024-05-09T12:53:07.172Z,49.67
2024-05-09T12:55:10.419Z,48.51
2024-05-09T12:57:12.430Z,48.71
2024-05-09T12:59:14.272Z,46.97
2024-05-09T13:01:16.205Z,47.16
2024-05-09T13:03:18.216Z,47.50
2024-05-09T13:05:20.150Z,49.62
2024-05-09T13:07:22.399Z,47.50
2024-05-09T13:09:26.955Z,48.26
2024-05-09T13:11:28.787Z,49.09
2024-05-09T13:13:30.542Z,50.32
2024-05-09T13:15:33.449Z,50.87
2024-05-09T13:17:35.476Z,49.79
2024-05-09T13:19:37.250Z,49.72
2024-05-09T13:21:39.067Z,49.23
2024-05-09T13:23:40.837Z,48.05
2024-05-09T13:25:45.232Z,46.03
2024-05-09T13:27:47.317Z,46.52
2024-05-09T13:29:49.189Z,45.92
2024-05-09T13:31:50.957Z,45.91
2024-05-09T13:33:52.847Z,47.19
2024-05-09T13:35:54.725Z,48.78
2024-05-09T13:37:56.514Z,48.62
2024-05-09T13:39:58.495Z,49.47
2024-05-09T13:42:03.047Z,50.24
2024-05-09T13:44:05.132Z,49.64
2024-05-09T13:46:07.088Z,50.63
2024-05-09T13:48:09.249Z,49.38
2024-05-09T13:50:16.968Z,49.84
2024-05-09T13:52:25.716Z,49.69
2024-05-09T13:54:27.729Z,50.61
2024-05-09T13:56:29.617Z,50.46
2024-05-09T13:58:34.345Z,48.02
2024-05-09T14:00:44.490Z,47.54
2024-05-09T14:02:50.141Z,46.68
2024-05-09T14:04:52.069Z,46.44
2024-05-09T14:06:54.128Z,46.99
2024-05-09T14:08:56.036Z,45.04
2024-05-09T14:10:57.911Z,46.43
2024-05-09T14:13:00.479Z,47.98
2024-05-09T14:15:05.786Z,49.00
2024-05-09T14:17:07.802Z,49.36
2024-05-09T14:19:09.780Z,49.44
2024-05-09T14:21:11.631Z,49.19
2024-05-09T14:23:14.036Z,50.37
2024-05-09T14:25:16.009Z,49.72
2024-05-09T14:27:18.199Z,49.79
2024-05-09T14:29:20.005Z,49.52
2024-05-09T14:31:24.447Z,48.20
2024-05-09T14:33:26.828Z,48.55
2024-05-09T14:35:28.860Z,47.86
2024-05-09T14:37:30.714Z,47.16
2024-05-09T14:39:32.563Z,46.46
2024-05-09T14:41:34.384Z,48.22
2024-05-09T14:43:36.130Z,48.56
2024-05-09T14:45:38.036Z,48.37
2024-05-09T14:47:42.618Z,49.85
2024-05-09T14:49:44.805Z,48.65
2024-05-09T14:51:47.976Z,49.42
2024-05-09T14:53:49.746Z,49.54
2024-05-09T14:55:51.794Z,49.79
2024-05-09T14:57:53.894Z,49.45
2024-05-09T14:59:55.810Z,49.37
2024-05-09T15:01:57.702Z,49.38
2024-05-09T15:04:02.483Z,48.96
2024-05-09T15:06:04.611Z,49.19
2024-05-09T15:08:07.773Z,49.33
2024-05-09T15:10:16.515Z,49.43
2024-05-09T15:12:25.203Z,49.88
2024-05-09T15:14:26.951Z,50.10
2024-05-09T15:16:28.782Z,50.19
2024-05-09T15:18:30.842Z,50.21
2024-05-09T15:20:37.091Z,49.19
2024-05-09T15:22:39.695Z,48.86
2024-05-09T15:24:42.215Z,48.07
2024-05-09T15:26:44.103Z,47.14
2024-05-09T15:28:46.019Z,47.64
2024-05-09T15:30:48.059Z,49.47
2024-05-09T15:32:50.090Z,48.34
2024-05-09T15:34:51.971Z,48.32
2024-05-09T15:36:58.102Z,48.07
2024-05-09T15:39:00.270Z,48.75
2024-05-09T15:41:02.133Z,49.24
2024-05-09T15:43:04.348Z,48.40
2024-05-09T15:45:06.591Z,49.15
2024-05-09T15:47:08.456Z,48.36
2024-05-09T15:49:10.428Z,47.38
2024-05-09T15:51:12.388Z,47.64
2024-05-09T15:53:16.796Z,47.93
2024-05-09T15:55:18.704Z,48.62
2024-05-09T15:57:20.727Z,47.57
2024-05-09T15:59:22.542Z,47.67
2024-05-09T16:01:24.532Z,47.79
2024-05-09T16:03:26.536Z,47.62
2024-05-09T16:05:28.606Z,48.69
2024-05-09T16:07:30.681Z,48.91
2024-05-09T16:09:35.183Z,49.02
2024-05-09T16:11:37.016Z,48.31
2024-05-09T16:13:38.893Z,47.37
2024-05-09T16:15:41.022Z,47.55
2024-05-09T16:17:43.002Z,48.32
2024-05-09T16:19:44.884Z,48.60
2024-05-09T16:21:46.722Z,47.88
2024-05-09T16:23:48.557Z,48.52
2024-05-09T16:25:53.081Z,49.02
2024-05-09T16:27:54.936Z,48.81
2024-05-09T16:29:56.827Z,48.87
2024-05-09T16:31:58.624Z,49.70
2024-05-09T16:34:00.563Z,49.73
2024-05-09T16:36:02.502Z,49.25
2024-05-09T16:38:05.174Z,48.21
2024-05-09T16:40:18.644Z,49.01
2024-05-09T16:42:30.748Z,48.01
2024-05-09T16:44:33.680Z,48.75
2024-05-09T16:46:37.081Z,48.30
2024-05-09T16:48:38.992Z,48.63
2024-05-09T16:50:40.853Z,49.17
2024-05-09T16:52:42.638Z,48.78
2024-05-09T16:54:44.394Z,49.01
2024-05-09T16:56:46.354Z,50.00
2024-05-09T16:58:51.115Z,49.18
2024-05-09T17:00:52.970Z,49.78
2024-05-09T17:02:54.884Z,50.20
2024-05-09T17:04:56.848Z,49.66
2024-05-09T17:06:58.876Z,50.24
2024-05-09T17:09:08.378Z,50.54
2024-05-09T17:11:13.707Z,50.33
2024-05-09T17:13:15.694Z,50.31
2024-05-09T17:15:20.103Z,49.51
2024-05-09T17:17:22.232Z,50.10
2024-05-09T17:19:24.402Z,50.78
2024-05-09T17:21:26.408Z,50.06
2024-05-09T17:23:28.725Z,50.94
2024-05-09T17:25:31.087Z,51.57
2024-05-09T17:27:33.107Z,50.48
2024-05-09T17:29:35.347Z,50.58
2024-05-09T17:31:39.835Z,50.91
2024-05-09T17:33:41.934Z,52.00
2024-05-09T17:35:43.858Z,51.36
2024-05-09T17:37:45.654Z,51.25
2024-05-09T17:39:47.508Z,51.05
2024-05-09T17:41:49.300Z,51.81
2024-05-09T17:43:51.181Z,53.32
2024-05-09T17:45:53.015Z,52.17
2024-05-09T17:47:58.365Z,52.67
2024-05-09T17:50:00.457Z,53.16
2024-05-09T17:52:02.363Z,52.91
2024-05-09T17:54:04.152Z,53.52
2024-05-09T17:56:07.083Z,54.47
2024-05-09T17:58:09.940Z,54.08
2024-05-09T18:00:17.288Z,54.18
2024-05-09T18:02:23.060Z,54.43
2024-05-09T18:04:29.637Z,54.67
2024-05-09T18:06:33.180Z,54.63
2024-05-09T18:08:34.999Z,54.38
2024-05-09T18:10:39.382Z,54.32
2024-05-09T18:12:42.134Z,54.39
2024-05-09T18:14:44.004Z,55.39
2024-05-09T18:16:45.930Z,55.60
2024-05-09T18:18:47.965Z,58.79
2024-05-09T18:20:52.465Z,57.02
2024-05-09T18:22:55.234Z,60.92
2024-05-09T18:24:57.088Z,57.64
2024-05-09T18:26:59.135Z,58.33
2024-05-09T18:29:01.043Z,62.49
2024-05-09T18:31:02.900Z,59.98
2024-05-09T18:33:06.832Z,61.79
2024-05-09T18:35:10.801Z,62.58
2024-05-09T18:37:15.274Z,63.36
2024-05-09T18:39:17.111Z,63.39
2024-05-09T18:41:18.991Z,65.29
2024-05-09T18:43:28.403Z,65.41
2024-05-09T18:45:33.163Z,65.53
2024-05-09T18:47:35.320Z,64.86
2024-05-09T18:49:37.254Z,66.43
2024-05-09T18:51:39.079Z,66.35
2024-05-09T18:53:44.971Z,66.68
2024-05-09T18:55:46.888Z,67.40
2024-05-09T18:57:48.775Z,67.76
2024-05-09T18:59:50.636Z,67.35
2024-05-09T19:01:52.649Z,67.51
2024-05-09T19:03:55.410Z,66.33
2024-05-09T19:05:57.503Z,66.63
2024-05-09T19:07:59.452Z,65.84
2024-05-09T19:10:05.558Z,65.26
2024-05-09T19:12:07.899Z,66.58
2024-05-09T19:14:09.761Z,67.05
2024-05-09T19:16:11.679Z,68.49
2024-05-09T19:18:14.295Z,69.06
2024-05-09T19:20:25.176Z,67.51
2024-05-09T19:22:33.231Z,65.11
2024-05-09T19:24:35.050Z,66.41
2024-05-09T19:26:39.528Z,65.77
2024-05-09T19:28:41.347Z,66.38
2024-05-09T19:30:43.475Z,64.23
2024-05-09T19:32:45.482Z,67.85
2024-05-09T19:34:47.425Z,64.49
2024-05-09T19:36:49.422Z,65.44
2024-05-09T19:38:51.332Z,64.06
2024-05-09T19:40:53.391Z,66.97
2024-05-09T19:42:58.004Z,67.09
2024-05-09T19:44:59.776Z,65.93
2024-05-09T19:47:01.888Z,67.55
2024-05-09T19:49:03.852Z,66.13
2024-05-09T19:51:05.869Z,65.67
2024-05-09T19:53:07.860Z,65.78
2024-05-09T19:55:09.798Z,65.25
2024-05-09T19:57:11.621Z,65.15
2024-05-09T19:59:16.068Z,65.01
2024-05-09T20:01:17.982Z,64.86
2024-05-09T20:03:20.048Z,63.42
2024-05-09T20:05:22.253Z,62.65
2024-05-09T20:07:24.215Z,61.56
2024-05-09T20:09:26.108Z,62.93
2024-05-09T20:11:27.933Z,63.09
2024-05-09T20:13:29.755Z,63.70
2024-05-09T20:15:35.340Z,62.92
2024-05-09T20:17:38.315Z,63.99
2024-05-09T20:19:42.892Z,63.96
2024-05-09T20:21:44.847Z,64.72
2024-05-09T20:23:46.687Z,63.93
2024-05-09T20:25:48.494Z,63.50
2024-05-09T20:27:50.294Z,64.67
2024-05-09T20:29:52.194Z,64.83
2024-05-09T20:31:56.581Z,64.26
2024-05-09T20:33:58.501Z,64.78
2024-05-09T20:36:02.152Z,64.16
2024-05-09T20:38:05.204Z,65.21
2024-05-09T20:40:12.269Z,64.51
2024-05-09T20:42:17.558Z,64.77
2024-05-09T20:44:19.478Z,65.16
2024-05-09T20:46:21.383Z,65.14
2024-05-09T20:48:26.082Z,64.87
2024-05-09T20:50:36.031Z,65.59
2024-05-09T20:52:41.773Z,64.51
2024-05-09T20:54:43.605Z,66.93
2024-05-09T20:56:45.444Z,66.21
2024-05-09T20:58:47.262Z,67.51
2024-05-09T21:00:49.229Z,68.64
2024-05-09T21:02:51.053Z,70.76
2024-05-09T21:04:55.664Z,67.10
2024-05-09T21:06:57.529Z,70.25
2024-05-09T21:08:59.357Z,67.97
2024-05-09T21:11:01.257Z,65.98
2024-05-09T21:13:03.928Z,66.65
2024-05-09T21:15:06.894Z,65.81
2024-05-09T21:17:08.811Z,66.55
2024-05-09T21:19:10.667Z,65.48
2024-05-09T21:21:15.066Z,65.03
2024-05-09T21:23:16.898Z,64.80
2024-05-09T21:25:18.734Z,65.53
2024-05-09T21:27:20.542Z,64.46
2024-05-09T21:29:22.310Z,64.06
2024-05-09T21:31:24.206Z,64.14
2024-05-09T21:33:26.163Z,63.94
2024-05-09T21:35:27.957Z,64.30
2024-05-09T21:37:32.353Z,64.66
2024-05-09T21:39:34.290Z,64.72
2024-05-09T21:41:36.102Z,64.80
2024-05-09T21:43:38.120Z,65.65
2024-05-09T21:45:39.998Z,65.13
2024-05-09T21:47:42.313Z,65.48
2024-05-09T21:49:44.231Z,65.07
2024-05-09T21:51:46.214Z,65.67
2024-05-09T21:53:50.836Z,65.91
2024-05-09T21:55:52.597Z,65.93
2024-05-09T21:57:54.471Z,66.34
2024-05-09T21:59:56.263Z,66.74
2024-05-09T22:01:58.264Z,67.63
2024-05-09T22:04:00.373Z,65.96
2024-05-09T22:06:02.275Z,65.99
2024-05-09T22:08:04.812Z,66.85
2024-05-09T22:10:19.586Z,69.73
2024-05-09T22:12:24.782Z,71.52
2024-05-09T22:14:26.616Z,72.19
2024-05-09T22:16:28.515Z,72.00
2024-05-09T22:18:30.478Z,73.97
2024-05-09T22:20:37.298Z,75.03
2024-05-09T22:22:41.088Z,77.52
2024-05-09T22:24:42.877Z,77.88
2024-05-09T22:26:47.352Z,77.33
2024-05-09T22:28:49.152Z,78.75
2024-05-09T22:30:50.960Z,80.02
2024-05-09T22:32:52.923Z,81.01
2024-05-09T22:34:54.869Z,82.22
2024-05-09T22:36:56.805Z,81.41
2024-05-09T22:38:58.612Z,82.43
2024-05-09T22:41:00.714Z,82.34
2024-05-09T22:43:05.560Z,83.56
2024-05-09T22:45:07.765Z,84.66
2024-05-09T22:47:09.737Z,85.28
2024-05-09T22:49:11.692Z,84.43
2024-05-09T22:51:13.604Z,85.22
2024-05-09T22:53:15.552Z,86.51
2024-05-09T22:55:17.387Z,86.87
2024-05-09T22:57:19.221Z,87.57
2024-05-09T22:59:23.648Z,88.79
2024-05-09T23:01:26.909Z,87.95
2024-05-09T23:03:28.933Z,90.28
2024-05-09T23:05:31.168Z,90.59
2024-05-09T23:07:33.032Z,91.19
2024-05-09T23:09:34.955Z,90.64
2024-05-09T23:11:40.639Z,89.91
2024-05-09T23:13:42.416Z,89.47
2024-05-09T23:15:46.792Z,89.21
2024-05-09T23:17:48.719Z,90.42
2024-05-09T23:19:50.545Z,89.57
2024-05-09T23:21:52.408Z,90.66
2024-05-09T23:23:54.236Z,91.68
2024-05-09T23:25:56.021Z,91.53
2024-05-09T23:27:59.706Z,90.51
2024-05-09T23:30:01.589Z,91.88
2024-05-09T23:32:06.324Z,89.32
2024-05-09T23:34:08.271Z,89.84
2024-05-09T23:36:10.132Z,89.85
2024-05-09T23:38:12.330Z,90.07
2024-05-09T23:40:18.714Z,91.07
2024-05-09T23:42:24.497Z,93.28
2024-05-09T23:44:26.276Z,94.79
2024-05-09T23:46:29.257Z,94.53
2024-05-09T23:48:34.047Z,94.04
2024-05-09T23:50:38.276Z,93.87
2024-05-09T23:52:41.520Z,94.43
2024-05-09T23:54:43.369Z,94.94
2024-05-09T23:56:45.204Z,96.53
2024-05-09T23:58:47.246Z,96.02
